Time;durP1;ratioP1;P1;durP2;ratioP2;P2;SDS_P1;SDS_P2;PMS_P1;PMS_P2;Temp;Humidity;BMP_temperature;BMP_pressure;BME280_temperature;BME280_humidity;BME280_pressure;Samples;Min_cycle;Max_cycle;Signal;HPM_P1;HPM_P2
2022/01/13 00:01:12;;;;;;;403.60;31.17;;;4.80;99.90;;;;;;4990466;28;20084;-64
2022/01/13 00:03:39;;;;;;;354.42;31.17;;;4.80;99.90;;;;;;4990474;28;20117;-64
2022/01/13 00:06:04;;;;;;;406.42;33.15;;;4.80;99.90;;;;;;4990544;28;20090;-64
2022/01/13 00:08:30;;;;;;;382.40;30.58;;;4.80;99.90;;;;;;4990364;28;20524;-64
2022/01/13 00:10:56;;;;;;;389.73;30.63;;;4.80;99.90;;;;;;4989914;28;20038;-64
2022/01/13 00:13:25;;;;;;;384.73;30.70;;;4.80;99.90;;;;;;4988975;28;20049;-64
2022/01/13 00:16:23;;;;;;;461.35;31.88;;;4.80;99.90;;;;;;4998805;28;20121;-64
2022/01/13 00:18:49;;;;;;;405.98;29.80;;;4.80;99.90;;;;;;5009798;28;20038;-64
2022/01/13 00:23:51;;;;;;;445.05;31.15;;;4.80;99.90;;;;;;5009785;28;20418;-64
2022/01/13 00:26:22;;;;;;;323.58;27.98;;;4.80;99.90;;;;;;5010017;28;20077;-64
2022/01/13 00:28:51;;;;;;;378.10;29.67;;;4.80;99.90;;;;;;5009808;28;20069;-64
2022/01/13 00:31:24;;;;;;;403.42;28.65;;;4.90;99.90;;;;;;5009866;28;20048;-64
2022/01/13 00:33:54;;;;;;;390.73;30.00;;;4.80;99.90;;;;;;5009564;28;20665;-64
2022/01/13 00:36:24;;;;;;;414.25;28.90;;;4.90;99.90;;;;;;5009756;28;20121;-64
2022/01/13 00:38:50;;;;;;;388.88;29.58;;;4.90;99.90;;;;;;5008299;28;20053;-64
2022/01/13 00:41:16;;;;;;;475.02;31.90;;;4.90;99.90;;;;;;5009632;28;20042;-64
2022/01/13 00:43:42;;;;;;;416.40;29.50;;;4.90;99.90;;;;;;5009555;28;20037;-64
2022/01/13 00:46:09;;;;;;;448.77;30.27;;;4.90;99.90;;;;;;5009413;28;20119;-64
2022/01/13 00:48:35;;;;;;;487.30;31.50;;;4.90;99.90;;;;;;5009321;28;20493;-64
2022/01/13 00:51:01;;;;;;;418.20;29.27;;;4.90;99.90;;;;;;5009571;28;20052;-64
2022/01/13 00:53:27;;;;;;;410.40;29.55;;;5.00;99.90;;;;;;5009655;28;20121;-64
2022/01/13 00:55:58;;;;;;;420.63;27.88;;;5.00;99.90;;;;;;5009521;28;20495;-64
2022/01/13 00:58:26;;;;;;;341.15;27.60;;;5.00;99.90;;;;;;5009337;28;20530;-64
2022/01/13 01:00:52;;;;;;;441.60;30.25;;;5.00;99.90;;;;;;5009113;28;20109;-64
2022/01/13 01:03:18;;;;;;;396.80;28.67;;;5.00;99.90;;;;;;5009375;28;20458;-64
2022/01/13 01:05:43;;;;;;;358.50;26.88;;;5.00;99.90;;;;;;5009563;28;20037;-64
2022/01/13 01:08:10;;;;;;;430.25;27.70;;;5.10;99.90;;;;;;5009461;28;20049;-64
2022/01/13 01:10:36;;;;;;;351.05;26.15;;;5.10;99.90;;;;;;5009191;28;20034;-64
2022/01/13 01:13:10;;;;;;;378.15;29.17;;;5.10;99.90;;;;;;5009342;28;20088;-64
2022/01/13 01:15:37;;;;;;;315.83;25.98;;;5.10;99.90;;;;;;5008033;28;20049;-64
2022/01/13 01:18:12;;;;;;;365.85;27.70;;;5.10;99.90;;;;;;5009397;28;20026;-64
2022/01/13 01:20:48;;;;;;;373.13;26.60;;;5.10;99.90;;;;;;5009269;28;20045;-64
2022/01/13 01:23:18;;;;;;;388.52;27.23;;;5.10;99.90;;;;;;5009234;28;20038;-64
2022/01/13 01:25:59;;;;;;;387.20;26.13;;;5.20;99.90;;;;;;5009342;28;20037;-64
2022/01/13 01:28:34;;;;;;;327.60;24.98;;;5.20;99.90;;;;;;5009495;28;20478;-64
2022/01/13 01:31:00;;;;;;;377.98;26.60;;;5.20;99.90;;;;;;5009068;28;20038;-64
2022/01/13 01:33:25;;;;;;;314.85;26.77;;;5.20;99.90;;;;;;5009132;28;20565;-64
2022/01/13 01:35:51;;;;;;;428.90;27.33;;;5.20;99.90;;;;;;5009304;28;20045;-64
2022/01/13 01:38:18;;;;;;;324.65;28.10;;;5.20;99.90;;;;;;5008997;28;20494;-64
2022/01/13 01:40:43;;;;;;;361.88;26.88;;;5.20;99.90;;;;;;5009065;28;20482;-65
2022/01/13 01:43:09;;;;;;;393.50;27.98;;;5.30;99.90;;;;;;5009033;28;20808;-64
2022/01/13 01:45:43;;;;;;;343.38;26.13;;;5.30;99.90;;;;;;5008307;28;20104;-64
2022/01/13 01:48:10;;;;;;;317.88;24.70;;;5.30;99.90;;;;;;5007774;28;20077;-64
2022/01/13 01:50:37;;;;;;;313.27;24.42;;;5.30;99.90;;;;;;5007548;28;20552;-64
2022/01/13 01:53:05;;;;;;;371.55;25.35;;;5.30;99.90;;;;;;5008593;28;20499;-64
2022/01/13 01:55:30;;;;;;;283.55;24.40;;;5.40;99.90;;;;;;5009098;28;20121;-64
2022/01/13 01:57:56;;;;;;;296.45;21.95;;;5.40;99.90;;;;;;5011726;28;20129;-64
2022/01/13 02:00:24;;;;;;;217.35;21.88;;;5.40;99.90;;;;;;5012332;28;20483;-64
2022/01/13 02:02:50;;;;;;;271.70;23.85;;;5.30;99.90;;;;;;5012274;28;20046;-64
2022/01/13 02:05:16;;;;;;;287.85;23.70;;;5.40;99.90;;;;;;5012365;28;20042;-64
2022/01/13 02:07:41;;;;;;;218.60;20.20;;;5.40;99.90;;;;;;5011086;28;20052;-64
2022/01/13 02:10:08;;;;;;;213.07;21.70;;;5.40;99.90;;;;;;5012335;28;20046;-63
2022/01/13 02:12:40;;;;;;;226.82;21.17;;;5.40;99.90;;;;;;5011913;28;20038;-64
2022/01/13 02:17:40;;;;;;;256.23;20.75;;;5.40;99.90;;;;;;5012574;28;20050;-64
2022/01/13 02:20:07;;;;;;;209.60;21.05;;;5.50;99.90;;;;;;5011726;28;20071;-64
2022/01/13 02:22:33;;;;;;;224.45;20.45;;;5.50;99.90;;;;;;5010836;28;20103;-64
2022/01/13 02:24:59;;;;;;;313.08;23.13;;;5.40;99.90;;;;;;5012135;28;20553;-64
2022/01/13 02:27:24;;;;;;;261.25;21.60;;;5.40;99.90;;;;;;5012398;28;20067;-64
2022/01/13 02:29:50;;;;;;;245.75;20.60;;;5.40;99.90;;;;;;5011863;28;20125;-64
2022/01/13 02:32:16;;;;;;;293.58;19.83;;;5.40;99.90;;;;;;5011844;28;20048;-64
2022/01/13 02:34:42;;;;;;;231.38;19.67;;;5.40;99.90;;;;;;5011462;28;20046;-64
2022/01/13 02:37:09;;;;;;;214.18;19.70;;;5.50;99.90;;;;;;5012044;28;20042;-64
2022/01/13 02:39:35;;;;;;;206.88;20.85;;;5.40;99.90;;;;;;5011927;28;20034;-64
2022/01/13 02:42:03;;;;;;;238.20;18.90;;;5.50;99.90;;;;;;5011601;28;20124;-64
2022/01/13 02:44:30;;;;;;;217.85;19.50;;;5.40;99.90;;;;;;5011537;28;20046;-64
2022/01/13 02:49:45;;;;;;;323.42;19.98;;;5.40;99.90;;;;;;4992047;28;20620;-64
2022/01/13 02:52:11;;;;;;;287.80;22.20;;;5.40;99.90;;;;;;5011497;28;20498;-64
2022/01/13 02:54:36;;;;;;;223.55;21.33;;;5.40;99.90;;;;;;5011217;28;20096;-64
2022/01/13 02:57:02;;;;;;;210.27;20.02;;;5.40;99.90;;;;;;5011457;28;20049;-64
2022/01/13 02:59:27;;;;;;;266.50;23.35;;;5.40;99.90;;;;;;5011324;28;20121;-64
2022/01/13 03:01:53;;;;;;;246.27;19.30;;;5.40;99.90;;;;;;5010888;28;20128;-64
2022/01/13 03:04:21;;;;;;;261.63;20.05;;;5.40;99.90;;;;;;5011138;28;20088;-65
2022/01/13 03:06:47;;;;;;;282.65;22.10;;;5.40;99.90;;;;;;5010202;28;20053;-65
2022/01/13 03:09:13;;;;;;;251.80;23.38;;;5.40;99.90;;;;;;5011309;28;20486;-65
2022/01/13 03:11:39;;;;;;;305.48;24.35;;;5.40;99.90;;;;;;5010846;28;20535;-64
2022/01/13 03:14:10;;;;;;;275.02;22.08;;;5.30;99.90;;;;;;5010879;28;20108;-64
2022/01/13 03:16:43;;;;;;;232.15;21.00;;;5.30;99.90;;;;;;5011068;28;20038;-65
2022/01/13 03:19:10;;;;;;;235.90;19.88;;;5.30;99.90;;;;;;5011066;28;20042;-64
2022/01/13 03:21:36;;;;;;;236.07;21.25;;;5.30;99.90;;;;;;5010946;28;20048;-65
2022/01/13 03:24:06;;;;;;;208.43;19.83;;;5.30;99.90;;;;;;5010767;28;20096;-65
2022/01/13 03:26:32;;;;;;;237.98;20.88;;;5.30;99.90;;;;;;5011410;28;20042;-65
2022/01/13 03:29:14;;;;;;;207.30;17.90;;;5.30;99.90;;;;;;5010671;28;20088;-65
2022/01/13 03:31:41;;;;;;;185.10;19.30;;;5.30;99.90;;;;;;5010696;28;20088;-64
2022/01/13 03:34:06;;;;;;;185.13;19.58;;;5.30;99.90;;;;;;5010574;28;20107;-64
2022/01/13 03:36:32;;;;;;;195.35;19.20;;;5.30;99.90;;;;;;5010627;28;20648;-64
2022/01/13 03:38:58;;;;;;;183.38;18.45;;;5.30;99.90;;;;;;5010594;28;20045;-64
2022/01/13 03:41:24;;;;;;;177.48;19.38;;;5.20;99.90;;;;;;5009029;28;20034;-64
2022/01/13 03:43:55;;;;;;;169.10;17.45;;;5.30;99.90;;;;;;5010466;28;20064;-64
2022/01/13 03:46:21;;;;;;;152.52;16.55;;;5.30;99.90;;;;;;5009591;28;20610;-64
2022/01/13 03:48:46;;;;;;;165.20;17.90;;;5.20;99.90;;;;;;5010381;28;20041;-64
2022/01/13 03:51:12;;;;;;;194.48;19.10;;;5.20;99.90;;;;;;5010276;28;20478;-64
2022/01/13 03:53:38;;;;;;;161.75;18.40;;;5.20;99.90;;;;;;5010115;28;20044;-64
2022/01/13 03:56:46;;;;;;;136.15;16.85;;;5.20;99.90;;;;;;5010084;28;20081;-64
2022/01/13 03:59:30;;;;;;;196.55;18.65;;;5.20;99.90;;;;;;5010128;28;20048;-64
2022/01/13 04:01:59;;;;;;;165.70;17.73;;;5.20;99.90;;;;;;5009038;28;20129;-64
2022/01/13 04:04:25;;;;;;;161.95;17.75;;;5.20;99.90;;;;;;5009899;28;20042;-64
2022/01/13 04:07:10;;;;;;;189.15;19.10;;;5.20;99.90;;;;;;5010322;28;20034;-64
2022/01/13 04:09:51;;;;;;;202.35;18.77;;;5.20;99.90;;;;;;5009202;28;20489;-64
2022/01/13 04:12:20;;;;;;;145.65;17.35;;;5.20;99.90;;;;;;5010133;28;20657;-64
2022/01/13 04:14:50;;;;;;;186.85;18.60;;;5.20;99.90;;;;;;5009618;28;20053;-64
2022/01/13 04:17:17;;;;;;;172.25;18.73;;;5.20;99.90;;;;;;5010002;28;20640;-64
2022/01/13 04:19:43;;;;;;;166.73;18.52;;;5.20;99.90;;;;;;5009484;28;20056;-64
2022/01/13 04:22:10;;;;;;;175.68;16.73;;;5.20;99.90;;;;;;5009949;28;20061;-64
2022/01/13 04:24:38;;;;;;;199.68;18.95;;;5.20;99.90;;;;;;5009722;28;20567;-64
2022/01/13 04:27:05;;;;;;;191.52;18.52;;;5.20;99.90;;;;;;5008405;28;20053;-64
2022/01/13 04:29:40;;;;;;;167.38;19.05;;;5.20;99.90;;;;;;5010016;28;20046;-64
2022/01/13 04:32:07;;;;;;;152.13;17.45;;;5.10;99.90;;;;;;5009883;28;20134;-64
2022/01/13 04:34:33;;;;;;;175.73;17.38;;;5.10;99.90;;;;;;5009008;28;20045;-63
2022/01/13 04:36:59;;;;;;;164.23;17.15;;;5.10;99.90;;;;;;5009372;28;20034;-63
2022/01/13 04:39:26;;;;;;;201.63;17.48;;;5.10;99.90;;;;;;5009764;28;20042;-64
2022/01/13 04:41:53;;;;;;;177.60;18.23;;;5.10;99.90;;;;;;5009519;28;20164;-64
2022/01/13 04:44:21;;;;;;;155.45;18.35;;;5.10;99.90;;;;;;5009264;28;20406;-64
2022/01/13 04:46:48;;;;;;;167.73;18.35;;;5.10;99.90;;;;;;5009665;28;20049;-64
2022/01/13 04:49:14;;;;;;;133.65;17.98;;;5.10;99.90;;;;;;5009576;28;20037;-64
2022/01/13 04:51:40;;;;;;;146.90;19.95;;;5.10;99.90;;;;;;5009545;28;20034;-63
2022/01/13 04:54:07;;;;;;;142.52;17.65;;;5.10;99.90;;;;;;5009371;28;20038;-64
2022/01/13 04:56:53;;;;;;;146.27;18.10;;;5.10;99.90;;;;;;5009609;28;20057;-64
2022/01/13 04:59:18;;;;;;;174.13;17.80;;;5.10;99.90;;;;;;5009392;28;20041;-64
2022/01/13 05:01:44;;;;;;;149.07;17.45;;;5.10;99.90;;;;;;5009556;28;20041;-64
2022/01/13 05:04:10;;;;;;;148.00;18.48;;;5.10;99.90;;;;;;5009381;28;20662;-63
2022/01/13 05:06:35;;;;;;;162.15;18.42;;;5.10;99.90;;;;;;5009329;28;20040;-64
2022/01/13 05:09:02;;;;;;;146.43;18.50;;;5.10;99.90;;;;;;5009137;28;20080;-64
2022/01/13 05:11:27;;;;;;;169.77;19.90;;;5.10;99.90;;;;;;5009430;28;20096;-63
2022/01/13 05:13:53;;;;;;;146.73;18.13;;;5.10;99.90;;;;;;5009464;28;20068;-64
2022/01/13 05:16:27;;;;;;;141.13;18.95;;;5.10;99.90;;;;;;5009296;28;20052;-64
2022/01/13 05:19:10;;;;;;;152.90;18.77;;;5.10;99.90;;;;;;5009274;28;20034;-64
2022/01/13 05:22:05;;;;;;;148.18;18.67;;;5.10;99.90;;;;;;5009239;28;20046;-64
2022/01/13 05:24:25;;;;;;;159.40;19.40;;;5.10;99.90;;;;;;5009215;28;20068;-63
2022/01/13 05:26:50;;;;;;;143.15;18.88;;;5.10;99.90;;;;;;5009261;28;20577;-64
2022/01/13 05:29:19;;;;;;;141.13;18.98;;;5.10;99.90;;;;;;5009361;28;20561;-64
2022/01/13 05:31:45;;;;;;;151.85;18.20;;;5.10;99.90;;;;;;5009716;28;20041;-64
2022/01/13 05:34:11;;;;;;;134.05;17.85;;;5.10;99.90;;;;;;5012940;28;20045;-64
2022/01/13 05:36:36;;;;;;;183.82;20.65;;;5.10;99.90;;;;;;5013072;28;20045;-64
2022/01/13 05:39:03;;;;;;;162.98;19.40;;;5.10;99.90;;;;;;5012955;28;20124;-63
2022/01/13 05:41:31;;;;;;;184.27;19.38;;;5.10;99.90;;;;;;5012702;28;20068;-64
2022/01/13 05:43:57;;;;;;;215.50;19.90;;;5.10;99.90;;;;;;5011430;28;20042;-64
2022/01/13 05:46:22;;;;;;;187.07;19.65;;;5.00;99.90;;;;;;5012561;28;20045;-64
2022/01/13 05:48:48;;;;;;;193.65;20.00;;;5.10;99.90;;;;;;5012960;28;20088;-64
2022/01/13 05:51:14;;;;;;;195.75;23.30;;;5.10;99.90;;;;;;5012626;28;20103;-64
2022/01/13 05:53:39;;;;;;;183.30;21.67;;;5.10;99.90;;;;;;5012288;28;20034;-63
2022/01/13 05:56:05;;;;;;;142.23;19.05;;;5.10;99.90;;;;;;5009712;28;20095;-63
2022/01/13 05:58:31;;;;;;;157.45;18.42;;;5.10;99.90;;;;;;5010154;28;20041;-63
2022/01/13 06:00:56;;;;;;;129.50;19.60;;;5.10;99.90;;;;;;5009528;28;20053;-63
2022/01/13 06:03:22;;;;;;;106.43;18.88;;;5.10;99.90;;;;;;5009818;28;20044;-63
2022/01/13 06:05:47;;;;;;;127.60;18.80;;;5.10;99.90;;;;;;5009897;28;20536;-63
2022/01/13 06:08:13;;;;;;;137.02;21.40;;;5.00;99.90;;;;;;5009727;28;20045;-63
2022/01/13 06:10:43;;;;;;;124.32;19.20;;;5.00;99.90;;;;;;5009468;28;20046;-63
2022/01/13 06:13:08;;;;;;;134.68;18.73;;;5.00;99.90;;;;;;5009298;28;20076;-63
2022/01/13 06:15:37;;;;;;;132.73;20.45;;;5.00;99.90;;;;;;5009529;28;20038;-63
2022/01/13 06:18:03;;;;;;;146.50;20.38;;;5.00;99.90;;;;;;5009643;28;20041;-63
2022/01/13 06:20:28;;;;;;;140.32;18.42;;;5.00;99.90;;;;;;5009723;28;20061;-63
2022/01/13 06:22:54;;;;;;;174.93;22.77;;;5.00;99.90;;;;;;5009265;28;20042;-63
2022/01/13 06:25:20;;;;;;;122.68;22.75;;;5.00;99.90;;;;;;5009554;28;20548;-64
2022/01/13 06:27:46;;;;;;;125.45;22.38;;;5.00;99.90;;;;;;5009438;28;20406;-64
2022/01/13 06:30:14;;;;;;;135.55;20.85;;;5.00;99.90;;;;;;5009003;28;20505;-64
2022/01/13 06:32:41;;;;;;;124.68;20.55;;;4.90;99.90;;;;;;5009238;28;20695;-64
2022/01/13 06:35:07;;;;;;;122.07;19.00;;;4.90;99.90;;;;;;5009280;28;20064;-63
2022/01/13 06:37:32;;;;;;;137.32;20.83;;;4.90;99.90;;;;;;5008010;28;20099;-63
2022/01/13 06:39:58;;;;;;;124.80;18.25;;;4.90;99.90;;;;;;5009058;28;20042;-64
2022/01/13 06:42:23;;;;;;;122.38;18.70;;;4.90;99.90;;;;;;5008435;28;20617;-63
2022/01/13 06:44:49;;;;;;;131.48;22.52;;;4.90;99.90;;;;;;5009013;28;20516;-64
2022/01/13 06:47:14;;;;;;;141.25;19.05;;;4.90;99.90;;;;;;5009307;28;20731;-64
2022/01/13 06:49:40;;;;;;;129.65;20.27;;;4.90;99.90;;;;;;5009251;28;20092;-64
2022/01/13 06:52:07;;;;;;;144.82;21.88;;;4.90;99.90;;;;;;5008829;28;20100;-62
2022/01/13 06:54:32;;;;;;;150.73;22.27;;;4.90;99.90;;;;;;5008781;28;20091;-63
2022/01/13 06:56:58;;;;;;;156.25;21.20;;;4.90;99.90;;;;;;5008586;28;20037;-64
2022/01/13 06:59:24;;;;;;;158.45;21.33;;;4.90;99.90;;;;;;5008344;28;20042;-64
2022/01/13 07:01:49;;;;;;;132.15;20.05;;;4.90;99.90;;;;;;5008598;28;20097;-63
2022/01/13 07:04:16;;;;;;;147.40;22.88;;;5.00;99.90;;;;;;5008720;28;20053;-63
2022/01/13 07:06:43;;;;;;;137.95;22.08;;;4.90;99.90;;;;;;5008617;28;20046;-64
2022/01/13 07:09:11;;;;;;;154.18;22.20;;;4.90;99.90;;;;;;5008466;28;20053;-64
2022/01/13 07:11:39;;;;;;;120.10;19.65;;;4.90;99.90;;;;;;5007030;28;20486;-63
2022/01/13 07:14:05;;;;;;;130.30;20.35;;;5.00;99.90;;;;;;5008524;28;20562;-65
2022/01/13 07:16:31;;;;;;;147.27;21.20;;;4.90;99.90;;;;;;5008645;28;20183;-63
2022/01/13 07:18:57;;;;;;;140.82;19.08;;;5.00;99.90;;;;;;5009278;28;20037;-63
2022/01/13 07:21:25;;;;;;;162.10;20.92;;;5.00;99.90;;;;;;5010263;28;20072;-63
2022/01/13 07:23:51;;;;;;;143.45;19.52;;;4.90;99.90;;;;;;5050609;23;20531;-63
2022/01/13 07:26:16;;;;;;;151.65;19.67;;;5.00;99.90;;;;;;5010755;28;20042;-63
2022/01/13 07:28:42;;;;;;;137.00;18.90;;;5.00;99.90;;;;;;5010952;28;20042;-63
2022/01/13 07:31:07;;;;;;;162.75;19.95;;;5.00;99.90;;;;;;5010777;28;20515;-63
2022/01/13 07:33:33;;;;;;;159.25;22.60;;;5.00;99.90;;;;;;5010533;28;20543;-63
2022/01/13 07:35:58;;;;;;;146.63;19.48;;;5.00;99.90;;;;;;5010918;28;20042;-63
2022/01/13 07:38:24;;;;;;;163.38;23.83;;;5.00;99.90;;;;;;5010770;28;20040;-63
2022/01/13 07:40:50;;;;;;;161.38;19.98;;;5.00;99.90;;;;;;5010096;28;20654;-63
2022/01/13 07:43:21;;;;;;;167.85;20.33;;;5.00;99.90;;;;;;5010338;28;20046;-63
2022/01/13 07:45:48;;;;;;;188.90;21.35;;;5.00;99.90;;;;;;5009464;28;20412;-63
2022/01/13 07:48:14;;;;;;;194.75;21.52;;;5.00;99.90;;;;;;5010581;28;20048;-63
2022/01/13 07:50:39;;;;;;;211.35;21.30;;;5.00;99.90;;;;;;5010168;28;20042;-63
2022/01/13 07:53:05;;;;;;;210.30;21.23;;;5.00;99.90;;;;;;5010210;28;20124;-62
2022/01/13 07:55:30;;;;;;;149.45;20.38;;;5.00;99.90;;;;;;5009557;28;20125;-63
2022/01/13 07:57:56;;;;;;;198.45;21.83;;;5.00;99.90;;;;;;5010560;28;20038;-62
2022/01/13 08:00:21;;;;;;;190.35;21.40;;;5.00;99.90;;;;;;5010205;28;20069;-63
2022/01/13 08:02:47;;;;;;;179.30;21.83;;;5.00;99.90;;;;;;5009766;28;20539;-63
2022/01/13 08:05:12;;;;;;;158.80;19.08;;;5.00;99.90;;;;;;5010286;28;20112;-63
2022/01/13 08:07:38;;;;;;;238.13;23.20;;;5.00;99.90;;;;;;5010268;28;20052;-63
2022/01/13 08:10:04;;;;;;;150.57;20.25;;;5.00;99.90;;;;;;5009707;28;20048;-62
2022/01/13 08:12:30;;;;;;;161.35;20.55;;;5.00;99.90;;;;;;5009881;28;20046;-63
2022/01/13 08:14:55;;;;;;;189.15;22.42;;;5.00;99.90;;;;;;5008843;28;20077;-63
2022/01/13 08:20:07;;;;;;;183.57;21.52;;;5.00;99.90;;;;;;5009913;28;20096;-63
2022/01/13 08:22:33;;;;;;;173.75;21.73;;;5.00;99.90;;;;;;5009322;28;20042;-62
2022/01/13 08:24:59;;;;;;;127.35;20.05;;;5.10;99.90;;;;;;5008639;28;20095;-62
2022/01/13 08:27:25;;;;;;;163.43;20.85;;;5.00;99.90;;;;;;5008809;28;20037;-63
2022/01/13 08:29:51;;;;;;;138.73;19.20;;;5.10;99.90;;;;;;5008776;28;20076;-62
2022/01/13 08:32:18;;;;;;;137.57;19.35;;;5.10;99.90;;;;;;5008152;28;20049;-62
2022/01/13 08:34:44;;;;;;;150.25;19.95;;;5.10;99.90;;;;;;5009612;28;20081;-63
2022/01/13 08:37:10;;;;;;;123.53;19.08;;;5.10;99.90;;;;;;5009755;28;20053;-62
2022/01/13 08:39:42;;;;;;;123.22;17.42;;;5.10;99.90;;;;;;5009969;28;20590;-62
2022/01/13 08:42:08;;;;;;;124.45;18.17;;;5.10;99.90;;;;;;5009410;28;20041;-63
2022/01/13 08:44:33;;;;;;;120.60;18.35;;;5.10;99.90;;;;;;5009345;28;20570;-62
2022/01/13 08:46:59;;;;;;;119.85;17.50;;;5.10;99.90;;;;;;5009634;28;20049;-63
2022/01/13 08:49:24;;;;;;;124.07;17.55;;;5.10;99.90;;;;;;5009847;28;20060;-62
2022/01/13 08:51:51;;;;;;;129.05;18.02;;;5.10;99.90;;;;;;5009042;28;20053;-63
2022/01/13 08:54:19;;;;;;;154.45;19.13;;;5.10;99.90;;;;;;5009182;28;20616;-62
2022/01/13 08:56:45;;;;;;;127.93;16.08;;;5.10;99.90;;;;;;5009677;28;20545;-62
2022/01/13 08:59:11;;;;;;;128.35;16.83;;;5.10;99.90;;;;;;5009833;28;20049;-63
2022/01/13 09:01:36;;;;;;;122.05;17.30;;;5.10;99.90;;;;;;5009147;28;20049;-62
2022/01/13 09:04:02;;;;;;;125.75;18.38;;;5.10;99.90;;;;;;5009092;28;20042;-63
2022/01/13 09:06:27;;;;;;;117.97;18.40;;;5.20;99.90;;;;;;5011087;28;20042;-63
2022/01/13 09:08:53;;;;;;;126.22;18.45;;;5.20;99.90;;;;;;5012895;28;20038;-62
2022/01/13 09:11:19;;;;;;;135.10;19.52;;;5.20;99.90;;;;;;5013270;28;20387;-63
2022/01/13 09:13:44;;;;;;;129.88;17.15;;;5.20;99.90;;;;;;5013058;28;20517;-62
2022/01/13 09:16:15;;;;;;;151.85;19.50;;;5.20;99.90;;;;;;5013330;28;20034;-62
2022/01/13 09:19:07;;;;;;;155.35;19.42;;;5.20;99.90;;;;;;5013418;28;20652;-63
2022/01/13 09:21:33;;;;;;;123.05;17.63;;;5.20;99.90;;;;;;5013146;28;20040;-63
2022/01/13 09:23:58;;;;;;;136.27;17.50;;;5.20;99.90;;;;;;5012585;28;20057;-63
2022/01/13 09:26:24;;;;;;;153.93;20.02;;;5.20;99.90;;;;;;5013129;28;20753;-63
2022/01/13 09:28:52;;;;;;;137.95;19.70;;;5.20;99.90;;;;;;5013158;28;20069;-62
2022/01/13 09:31:18;;;;;;;141.75;18.20;;;5.30;99.90;;;;;;5012712;28;20056;-63
2022/01/13 09:33:43;;;;;;;158.98;21.35;;;5.30;99.90;;;;;;5013040;28;20117;-63
2022/01/13 09:36:09;;;;;;;138.63;18.55;;;5.30;99.90;;;;;;5012891;28;20050;-63
2022/01/13 09:38:36;;;;;;;141.20;19.17;;;5.30;99.90;;;;;;5011559;28;20654;-63
2022/01/13 09:41:02;;;;;;;159.68;19.83;;;5.30;99.90;;;;;;5012521;28;20077;-63
2022/01/13 09:43:28;;;;;;;141.18;18.95;;;5.40;99.90;;;;;;5012562;28;20490;-63
2022/01/13 09:45:57;;;;;;;138.75;19.23;;;5.40;99.90;;;;;;5012604;28;20069;-63
2022/01/13 09:48:23;;;;;;;172.23;23.08;;;5.40;99.90;;;;;;5011300;28;20466;-63
2022/01/13 09:50:49;;;;;;;169.07;22.75;;;5.40;99.90;;;;;;5012510;28;20087;-62
2022/01/13 09:53:16;;;;;;;155.20;19.55;;;5.40;99.90;;;;;;5012493;28;20092;-62
2022/01/13 09:55:44;;;;;;;159.60;21.38;;;5.50;99.90;;;;;;5012745;28;20133;-62
2022/01/13 09:58:10;;;;;;;126.43;19.38;;;5.50;99.90;;;;;;5012517;28;20065;-62
2022/01/13 10:00:41;;;;;;;126.55;19.45;;;5.50;99.90;;;;;;5012003;28;20096;-62
2022/01/13 10:03:18;;;;;;;177.50;20.30;;;5.50;99.90;;;;;;5012208;28;20589;-62
2022/01/13 10:06:20;;;;;;;135.45;20.35;;;5.50;99.90;;;;;;5012486;28;20513;-62
2022/01/13 10:08:54;;;;;;;117.82;17.77;;;5.50;99.90;;;;;;5012287;28;20073;-62
2022/01/13 10:11:43;;;;;;;137.80;19.67;;;5.50;99.90;;;;;;5012376;28;20064;-62
2022/01/13 10:16:57;;;;;;;139.32;20.08;;;5.50;99.90;;;;;;5006520;28;20046;-63
2022/01/13 10:19:39;;;;;;;156.20;19.58;;;5.50;99.90;;;;;;5011270;28;20088;-63
2022/01/13 10:22:08;;;;;;;138.63;20.25;;;5.60;99.90;;;;;;5011251;28;20543;-63
2022/01/13 10:24:43;;;;;;;148.98;19.55;;;5.50;99.90;;;;;;5011699;28;20053;-63
2022/01/13 10:27:18;;;;;;;101.95;17.15;;;5.50;99.90;;;;;;5012011;28;20038;-63
2022/01/13 10:29:55;;;;;;;113.38;19.02;;;5.60;99.90;;;;;;4992220;28;20121;-62
2022/01/13 10:32:26;;;;;;;116.10;20.00;;;5.50;99.90;;;;;;4990511;28;20042;-63
2022/01/13 10:35:05;;;;;;;137.00;20.35;;;5.60;99.90;;;;;;4992048;28;20591;-62
2022/01/13 10:37:39;;;;;;;154.70;19.80;;;5.60;99.90;;;;;;4992323;28;20090;-62
2022/01/13 10:40:11;;;;;;;128.73;20.20;;;5.60;99.90;;;;;;4991698;28;20046;-62
2022/01/13 10:43:06;;;;;;;126.05;20.10;;;5.60;99.90;;;;;;4991978;28;20046;-62
2022/01/13 10:45:53;;;;;;;117.97;22.33;;;5.70;99.90;;;;;;4991906;28;20042;-62
2022/01/13 10:48:22;;;;;;;124.60;20.05;;;5.70;99.90;;;;;;4992132;28;20042;-62
2022/01/13 10:51:01;;;;;;;124.55;20.58;;;5.70;99.90;;;;;;4991977;28;20380;-62
2022/01/13 10:53:37;;;;;;;103.68;18.95;;;5.70;99.90;;;;;;4990055;28;20442;-63
2022/01/13 10:56:06;;;;;;;112.75;18.92;;;5.70;99.90;;;;;;5006197;28;20045;-62
2022/01/13 10:58:33;;;;;;;104.40;19.30;;;5.80;99.90;;;;;;4991941;28;20073;-63
2022/01/13 11:00:59;;;;;;;138.88;20.05;;;5.80;99.90;;;;;;4991369;28;20083;-62
2022/01/13 11:03:27;;;;;;;99.38;19.60;;;5.70;99.90;;;;;;4991770;28;20121;-62
2022/01/13 11:06:02;;;;;;;104.78;18.17;;;5.80;99.90;;;;;;4991938;28;20756;-62
2022/01/13 11:08:39;;;;;;;114.35;19.67;;;5.70;99.90;;;;;;4991729;28;20064;-62
2022/01/13 11:11:05;;;;;;;107.00;19.75;;;5.70;99.90;;;;;;4991459;28;20498;-62
2022/01/13 11:13:36;;;;;;;111.68;19.27;;;5.70;99.90;;;;;;4991185;28;20062;-62
2022/01/13 11:16:03;;;;;;;106.45;19.58;;;5.80;99.90;;;;;;4991604;28;20046;-63
2022/01/13 11:18:31;;;;;;;113.50;18.27;;;5.80;99.90;;;;;;4991490;28;20795;-62
2022/01/13 11:20:58;;;;;;;103.65;19.65;;;5.80;99.90;;;;;;4991486;28;20034;-62
2022/01/13 11:23:24;;;;;;;103.78;18.67;;;5.80;99.90;;;;;;4990907;28;20038;-62
2022/01/13 11:25:56;;;;;;;98.65;18.27;;;5.80;99.90;;;;;;4991120;28;20034;-62
2022/01/13 11:28:22;;;;;;;105.35;20.15;;;5.80;99.90;;;;;;4991570;28;20074;-63
2022/01/13 11:30:50;;;;;;;87.45;20.33;;;5.70;99.90;;;;;;4991369;28;20600;-63
2022/01/13 11:33:22;;;;;;;98.05;21.30;;;5.70;99.90;;;;;;4989983;28;20050;-63
2022/01/13 11:35:53;;;;;;;114.28;21.67;;;5.80;99.90;;;;;;4990954;28;20061;-63
2022/01/13 11:38:19;;;;;;;93.43;18.38;;;5.80;99.90;;;;;;4990120;28;20037;-63
2022/01/13 11:40:48;;;;;;;103.63;19.95;;;5.80;99.90;;;;;;4988615;28;20405;-63
2022/01/13 11:43:26;;;;;;;100.78;19.10;;;5.80;99.90;;;;;;4989365;28;20117;-63
2022/01/13 11:45:52;;;;;;;93.38;19.92;;;5.80;99.90;;;;;;4989618;28;20169;-63
2022/01/13 11:48:26;;;;;;;105.80;20.85;;;5.70;99.90;;;;;;4990712;28;20117;-63
2022/01/13 11:51:14;;;;;;;94.47;21.85;;;5.80;99.90;;;;;;4990284;28;20474;-62
2022/01/13 11:53:51;;;;;;;95.20;19.27;;;5.70;99.90;;;;;;4990763;28;20534;-63
2022/01/13 11:56:17;;;;;;;101.18;18.45;;;5.80;99.90;;;;;;4990039;28;20101;-63
2022/01/13 11:58:44;;;;;;;91.20;19.10;;;5.80;99.90;;;;;;4990573;28;20042;-62
2022/01/13 12:01:17;;;;;;;91.47;18.48;;;5.80;99.90;;;;;;4990607;28;20529;-63
2022/01/13 12:03:46;;;;;;;78.70;18.30;;;5.80;99.90;;;;;;4988951;28;20046;-62
2022/01/13 12:06:31;;;;;;;83.70;19.85;;;5.80;99.90;;;;;;4990521;28;20081;-62
2022/01/13 12:08:58;;;;;;;85.63;19.40;;;5.80;99.90;;;;;;4990680;28;20076;-62
2022/01/13 12:11:37;;;;;;;73.30;19.58;;;6.00;99.90;;;;;;4989278;28;20526;-63
2022/01/13 12:14:27;;;;;;;66.60;16.33;;;5.90;99.90;;;;;;4989077;28;20105;-63
2022/01/13 12:16:56;;;;;;;77.25;20.80;;;5.80;99.90;;;;;;4990166;28;20061;-62
2022/01/13 12:19:45;;;;;;;73.20;17.38;;;5.90;99.90;;;;;;4990395;28;20038;-62
2022/01/13 12:22:48;;;;;;;63.40;16.75;;;5.90;99.90;;;;;;4989952;28;20093;-62
2022/01/13 12:25:20;;;;;;;65.40;16.73;;;5.90;99.90;;;;;;4988102;28;20058;-62
2022/01/13 12:27:51;;;;;;;53.92;16.23;;;5.90;99.90;;;;;;4990363;28;20038;-62
2022/01/13 12:30:22;;;;;;;59.53;16.83;;;5.90;99.90;;;;;;4989108;28;20046;-62
2022/01/13 12:32:50;;;;;;;58.10;18.48;;;5.90;99.90;;;;;;4990291;28;20046;-62
2022/01/13 12:35:31;;;;;;;54.88;16.48;;;5.90;99.90;;;;;;4990172;28;20112;-62
2022/01/13 12:38:09;;;;;;;54.30;15.75;;;5.90;99.90;;;;;;4990242;28;20054;-62
2022/01/13 12:40:41;;;;;;;55.83;17.38;;;6.00;99.90;;;;;;4989462;28;20049;-62
2022/01/13 12:43:48;;;;;;;60.38;18.33;;;6.00;99.90;;;;;;4988907;28;20042;-62
2022/01/13 12:46:22;;;;;;;61.65;18.90;;;6.10;99.90;;;;;;4990123;28;20491;-62
2022/01/13 12:48:49;;;;;;;58.00;18.52;;;6.10;99.90;;;;;;4989989;28;20035;-63
2022/01/13 12:51:17;;;;;;;57.03;18.00;;;6.10;99.90;;;;;;4989700;28;20109;-62